Terminal Aerodrome Forecast
Issued by NWS

Home | Current Version | Previous Version | Text Only | Print | Product List | Glossary On
Versions: 1 2 3 4 5 6 7 8 9 10 11 12 13 14 15 16 17 18 19 20 21
000
FTUS41 KRLX 251737
TAFCKB
TAF
KCKB 251737Z 2518/2618 25010KT P6SM FEW029 SCT050 OVC060
     FM252300 23007KT P6SM BKN025
     FM260100 24005KT 3SM SHRA OVC019
     FM260600 24006KT P6SM OVC008
     FM261300 25009KT P6SM BKN011
     FM261700 26009KT P6SM BKN040=

USA.gov is the U.S. government's official web portal to all federal, state and local government web resources and services.